Time;durP1;ratioP1;P1;durP2;ratioP2;P2;SDS_P1;SDS_P2;PMS_P1;PMS_P2;Temp;Humidity;BMP_temperature;BMP_pressure;BME280_temperature;BME280_humidity;BME280_pressure;Samples;Min_cycle;Max_cycle;Signal;HPM_P1;HPM_P2
2022/08/10 00:01:26;;;;;;;;;;;20.40;96.10;;;;;;4401182;32;19949;-73
2022/08/10 00:03:52;;;;;;;;;;;20.40;96.00;;;;;;4400928;32;20005;-73
2022/08/10 00:06:17;;;;;;;;;;;20.30;96.20;;;;;;4401900;32;19946;-73
2022/08/10 00:08:42;;;;;;;;;;;20.20;96.70;;;;;;4402032;32;19953;-73
2022/08/10 00:11:08;;;;;;;;;;;20.00;97.10;;;;;;4400680;32;20311;-73
2022/08/10 00:13:34;;;;;;;;;;;20.00;97.10;;;;;;4401648;32;20336;-73
2022/08/10 00:15:59;;;;;;;;;;;20.00;97.10;;;;;;4401786;32;19948;-73
2022/08/10 00:18:25;;;;;;;;;;;20.00;97.50;;;;;;4401646;32;19961;-73
2022/08/10 00:20:50;;;;;;;;;;;19.80;97.80;;;;;;4400478;32;20298;-73
2022/08/10 00:23:16;;;;;;;;;;;19.60;98.30;;;;;;4401145;32;19946;-73
2022/08/10 00:25:41;;;;;;;;;;;19.70;98.50;;;;;;4401529;32;19941;-73
2022/08/10 00:28:07;;;;;;;;;;;19.70;98.30;;;;;;4401919;32;19965;-72
2022/08/10 00:30:32;;;;;;;;;;;19.80;98.40;;;;;;4401056;32;19997;-73
2022/08/10 00:32:58;;;;;;;;;;;19.80;98.30;;;;;;4401800;32;20388;-73
2022/08/10 00:35:23;;;;;;;;;;;19.80;98.40;;;;;;4400956;32;19941;-72
2022/08/10 00:37:49;;;;;;;;;;;19.70;98.80;;;;;;4400265;32;19949;-72
2022/08/10 00:40:14;;;;;;;;;;;19.70;99.00;;;;;;4400081;32;20001;-73
2022/08/10 00:42:39;;;;;;;;;;;19.70;99.00;;;;;;4400764;32;20032;-73
2022/08/10 00:45:05;;;;;;;;;;;19.60;99.30;;;;;;4400667;32;19960;-73
2022/08/10 00:47:30;;;;;;;;;;;19.50;99.70;;;;;;4400274;32;19941;-72
2022/08/10 00:49:56;;;;;;;;;;;19.50;99.60;;;;;;4415892;32;20003;-73
2022/08/10 00:52:23;;;;;;;;;;;19.50;99.80;;;;;;4415137;32;19945;-73
2022/08/10 00:54:49;;;;;;;;;;;19.60;99.60;;;;;;4399354;32;20304;-73
2022/08/10 00:57:14;;;;;;;;;;;19.60;99.70;;;;;;4385308;32;19946;-72
2022/08/10 00:59:40;;;;;;;;;;;19.60;99.80;;;;;;4384936;32;19942;-72
2022/08/10 01:02:05;;;;;;;;;;;19.70;99.90;;;;;;4384915;32;19954;-72
2022/08/10 01:04:31;;;;;;;;;;;19.70;99.90;;;;;;4394974;32;19946;-73
2022/08/10 01:06:57;;;;;;;;;;;19.60;99.90;;;;;;4399634;32;19960;-73
2022/08/10 01:09:27;;;;;;;;;;;19.70;99.90;;;;;;4400734;32;20003;-73
2022/08/10 01:11:54;;;;;;;;;;;19.70;99.90;;;;;;4400981;32;19949;-73
2022/08/10 01:14:22;;;;;;;;;;;19.60;99.90;;;;;;4400958;32;19952;-73
2022/08/10 01:16:52;;;;;;;;;;;19.60;99.90;;;;;;4401412;32;20357;-73
2022/08/10 01:19:37;;;;;;;;;;;19.60;99.90;;;;;;4400495;32;20408;-73
2022/08/10 01:22:23;;;;;;;;;;;19.50;99.90;;;;;;4400507;32;20008;-73
2022/08/10 01:25:08;;;;;;;;;;;19.40;99.90;;;;;;4388250;32;19950;-73
2022/08/10 01:27:53;;;;;;;;;;;19.40;99.90;;;;;;4389157;32;19960;-72
2022/08/10 01:30:20;;;;;;;;;;;19.40;99.90;;;;;;4388037;32;20353;-72
2022/08/10 01:32:48;;;;;;;;;;;19.40;99.90;;;;;;4400754;32;20008;-73
2022/08/10 01:35:17;;;;;;;;;;;19.40;99.90;;;;;;4400198;32;19941;-73
2022/08/10 01:37:45;;;;;;;;;;;19.20;99.90;;;;;;4400471;32;19962;-72
2022/08/10 01:40:12;;;;;;;;;;;19.20;99.90;;;;;;4401000;32;19957;-72
2022/08/10 01:42:39;;;;;;;;;;;19.10;99.90;;;;;;4401312;32;19953;-73
2022/08/10 01:45:05;;;;;;;;;;;19.20;99.90;;;;;;4399815;32;19956;-73
2022/08/10 01:48:33;;;;;;;;;;;19.20;99.90;;;;;;4400576;32;19956;-73
2022/08/10 01:50:29;;;;;;;;;;;19.20;99.90;;;;;;4388165;32;19946;-73
2022/08/10 01:52:55;;;;;;;;;;;19.30;99.90;;;;;;4402654;32;19959;-73
2022/08/10 01:55:22;;;;;;;;;;;19.30;99.90;;;;;;4406254;32;20297;-73
2022/08/10 01:57:48;;;;;;;;;;;19.20;99.90;;;;;;4400484;32;19950;-73
2022/08/10 02:00:14;;;;;;;;;;;19.20;99.90;;;;;;4399164;32;19945;-73
2022/08/10 02:02:40;;;;;;;;;;;19.00;99.90;;;;;;4399474;32;20008;-73
2022/08/10 02:05:06;;;;;;;;;;;18.90;99.90;;;;;;4400014;32;19953;-73
2022/08/10 02:07:32;;;;;;;;;;;19.00;99.90;;;;;;4399524;32;20321;-73
2022/08/10 02:10:01;;;;;;;;;;;19.10;99.90;;;;;;4398984;32;19960;-73
2022/08/10 02:12:28;;;;;;;;;;;19.10;99.90;;;;;;4400888;32;19960;-72
2022/08/10 02:14:56;;;;;;;;;;;19.00;99.90;;;;;;4399100;32;19946;-72
2022/08/10 02:17:25;;;;;;;;;;;18.90;99.90;;;;;;4400214;32;20005;-73
2022/08/10 02:19:53;;;;;;;;;;;18.80;99.90;;;;;;4400530;32;19956;-73
2022/08/10 02:22:19;;;;;;;;;;;18.80;99.90;;;;;;4399976;32;19949;-73
2022/08/10 02:24:45;;;;;;;;;;;18.70;99.90;;;;;;4399379;32;19956;-74
2022/08/10 02:27:11;;;;;;;;;;;18.60;99.90;;;;;;4399334;32;19954;-73
2022/08/10 02:29:38;;;;;;;;;;;18.70;99.90;;;;;;4401062;32;19945;-73
2022/08/10 02:32:05;;;;;;;;;;;18.70;99.90;;;;;;4399239;32;20296;-73
2022/08/10 02:34:31;;;;;;;;;;;18.60;99.90;;;;;;4399248;32;20036;-73
2022/08/10 02:36:57;;;;;;;;;;;18.50;99.90;;;;;;4400136;32;19953;-73
2022/08/10 02:39:23;;;;;;;;;;;18.50;99.90;;;;;;4399833;32;20343;-73
2022/08/10 02:41:50;;;;;;;;;;;18.50;99.90;;;;;;4398857;32;19949;-73
2022/08/10 02:44:17;;;;;;;;;;;18.40;99.90;;;;;;4400158;32;20346;-73
2022/08/10 02:46:45;;;;;;;;;;;18.40;99.90;;;;;;4399775;32;20290;-73
2022/08/10 02:49:14;;;;;;;;;;;18.40;99.90;;;;;;4400637;32;19953;-73
2022/08/10 02:51:43;;;;;;;;;;;18.40;99.90;;;;;;4398833;32;19953;-73
2022/08/10 02:54:13;;;;;;;;;;;18.40;99.90;;;;;;4400250;32;19957;-73
2022/08/10 02:56:42;;;;;;;;;;;18.30;99.90;;;;;;4393934;32;19957;-73
2022/08/10 02:59:10;;;;;;;;;;;18.20;99.90;;;;;;4385079;32;19950;-73
2022/08/10 03:01:40;;;;;;;;;;;18.10;99.90;;;;;;4383926;32;19953;-73
2022/08/10 03:04:06;;;;;;;;;;;18.10;99.90;;;;;;4384944;32;19952;-73
2022/08/10 03:06:35;;;;;;;;;;;18.10;99.90;;;;;;4388494;32;20016;-73
2022/08/10 03:09:02;;;;;;;;;;;18.00;99.90;;;;;;4399935;32;19996;-73
2022/08/10 03:11:29;;;;;;;;;;;17.90;99.90;;;;;;4400331;32;19984;-73
2022/08/10 03:13:57;;;;;;;;;;;18.00;99.90;;;;;;4399991;32;19969;-73
2022/08/10 03:16:23;;;;;;;;;;;17.90;99.90;;;;;;4399157;32;20424;-73
2022/08/10 03:18:49;;;;;;;;;;;17.90;99.90;;;;;;4398908;32;19942;-73
2022/08/10 03:21:16;;;;;;;;;;;17.90;99.90;;;;;;4398842;32;20005;-73
2022/08/10 03:23:43;;;;;;;;;;;18.00;99.90;;;;;;4399757;32;19945;-73
2022/08/10 03:26:09;;;;;;;;;;;17.70;99.90;;;;;;4398779;32;20281;-73
2022/08/10 03:28:34;;;;;;;;;;;17.60;99.90;;;;;;4393780;32;19941;-73
2022/08/10 03:31:00;;;;;;;;;;;17.60;99.90;;;;;;4384443;32;19942;-73
2022/08/10 03:33:27;;;;;;;;;;;17.60;99.90;;;;;;4383269;32;19950;-73
2022/08/10 03:35:53;;;;;;;;;;;17.60;99.90;;;;;;4387669;32;20013;-73
2022/08/10 03:38:18;;;;;;;;;;;17.60;99.90;;;;;;4399712;32;19949;-73
2022/08/10 03:40:45;;;;;;;;;;;17.40;99.90;;;;;;4398519;32;19989;-73
2022/08/10 03:43:12;;;;;;;;;;;17.50;99.90;;;;;;4399589;32;19968;-73
2022/08/10 03:45:37;;;;;;;;;;;17.50;99.90;;;;;;4399943;32;19976;-73
2022/08/10 03:48:04;;;;;;;;;;;17.50;99.90;;;;;;4402935;32;20241;-73
2022/08/10 03:50:30;;;;;;;;;;;17.60;99.90;;;;;;4414150;32;19949;-73
2022/08/10 03:52:56;;;;;;;;;;;17.60;99.90;;;;;;4414081;32;19966;-73
2022/08/10 03:55:23;;;;;;;;;;;17.60;99.90;;;;;;4413821;32;19949;-73
2022/08/10 03:57:48;;;;;;;;;;;17.60;99.90;;;;;;4400914;32;19942;-73
2022/08/10 04:00:17;;;;;;;;;;;17.60;99.90;;;;;;4397989;32;19959;-73
2022/08/10 04:02:44;;;;;;;;;;;17.60;99.90;;;;;;4399178;32;20361;-74
2022/08/10 04:05:09;;;;;;;;;;;17.60;99.90;;;;;;4399059;32;19956;-73
2022/08/10 04:07:35;;;;;;;;;;;17.60;99.90;;;;;;4398086;32;19950;-73
2022/08/10 04:10:00;;;;;;;;;;;17.60;99.90;;;;;;4398723;32;19967;-73
2022/08/10 04:12:26;;;;;;;;;;;17.60;99.90;;;;;;4398537;32;19996;-73
2022/08/10 04:14:51;;;;;;;;;;;17.70;99.90;;;;;;4398994;32;20385;-73
2022/08/10 04:17:17;;;;;;;;;;;17.70;99.90;;;;;;4400627;32;20334;-73
2022/08/10 04:19:44;;;;;;;;;;;17.70;99.90;;;;;;4401950;32;20314;-73
2022/08/10 04:22:13;;;;;;;;;;;17.80;99.90;;;;;;4400834;32;19949;-73
2022/08/10 04:24:40;;;;;;;;;;;17.90;99.90;;;;;;4402012;32;19949;-72
2022/08/10 04:27:05;;;;;;;;;;;17.80;99.90;;;;;;4402075;32;20284;-73
2022/08/10 04:29:31;;;;;;;;;;;17.80;99.90;;;;;;4389242;32;19957;-74
2022/08/10 04:31:58;;;;;;;;;;;17.80;99.90;;;;;;4385858;32;19950;-73
2022/08/10 04:34:25;;;;;;;;;;;17.80;99.90;;;;;;4385463;32;19998;-73
2022/08/10 04:36:52;;;;;;;;;;;17.90;99.90;;;;;;4385669;32;19949;-73
2022/08/10 04:39:18;;;;;;;;;;;17.90;99.90;;;;;;4386894;32;20001;-72
2022/08/10 04:41:43;;;;;;;;;;;17.90;99.90;;;;;;4387876;32;19961;-73
2022/08/10 04:44:09;;;;;;;;;;;17.90;99.90;;;;;;4401011;32;19946;-72
2022/08/10 04:46:35;;;;;;;;;;;17.90;99.90;;;;;;4400378;32;19950;-75
2022/08/10 04:49:01;;;;;;;;;;;17.80;99.90;;;;;;4400915;32;20293;-73
2022/08/10 04:51:26;;;;;;;;;;;17.80;99.90;;;;;;4398537;32;82626;-73
2022/08/10 04:53:51;;;;;;;;;;;17.80;99.90;;;;;;4403632;32;20419;-73
2022/08/10 04:56:17;;;;;;;;;;;17.90;99.90;;;;;;4416885;32;20345;-73
2022/08/10 04:58:42;;;;;;;;;;;18.00;99.90;;;;;;4399240;32;19957;-73
2022/08/10 05:01:08;;;;;;;;;;;18.10;99.90;;;;;;4399848;32;19972;-73
2022/08/10 05:03:33;;;;;;;;;;;18.20;99.90;;;;;;4400337;32;19950;-73
2022/08/10 05:05:59;;;;;;;;;;;18.20;99.90;;;;;;4407150;32;19945;-73
2022/08/10 05:08:25;;;;;;;;;;;18.30;99.90;;;;;;4400781;32;20032;-73
2022/08/10 05:10:51;;;;;;;;;;;18.40;99.90;;;;;;4400188;32;19957;-73
2022/08/10 05:13:16;;;;;;;;;;;18.40;99.90;;;;;;4400844;32;20374;-73
2022/08/10 05:15:44;;;;;;;;;;;18.50;99.90;;;;;;4400197;32;19946;-73
2022/08/10 05:18:09;;;;;;;;;;;18.60;99.90;;;;;;4405540;32;19959;-73
2022/08/10 05:20:35;;;;;;;;;;;18.70;99.90;;;;;;4415626;32;20365;-72
2022/08/10 05:23:00;;;;;;;;;;;18.60;99.90;;;;;;4402762;32;19986;-73
2022/08/10 05:25:26;;;;;;;;;;;18.70;99.90;;;;;;4400052;32;19954;-73
2022/08/10 05:27:51;;;;;;;;;;;18.60;99.90;;;;;;4400433;32;19957;-73
2022/08/10 05:30:18;;;;;;;;;;;18.70;99.90;;;;;;4400653;32;19945;-73
2022/08/10 05:32:44;;;;;;;;;;;18.80;99.90;;;;;;4401082;32;20084;-73
2022/08/10 05:35:09;;;;;;;;;;;18.90;99.90;;;;;;4400261;32;19946;-73
2022/08/10 05:37:35;;;;;;;;;;;18.90;99.90;;;;;;4400922;32;20446;-73
2022/08/10 05:40:03;;;;;;;;;;;19.00;99.90;;;;;;4401365;32;19945;-73
2022/08/10 05:42:29;;;;;;;;;;;19.10;99.90;;;;;;4401502;32;19953;-73
2022/08/10 05:44:54;;;;;;;;;;;19.10;99.90;;;;;;4401010;32;20302;-73
2022/08/10 05:47:20;;;;;;;;;;;19.20;99.90;;;;;;4410875;32;20420;-73
2022/08/10 05:49:47;;;;;;;;;;;19.30;99.90;;;;;;4403549;32;19946;-73
2022/08/10 05:52:13;;;;;;;;;;;19.30;99.90;;;;;;4404723;32;19959;-73
2022/08/10 05:54:38;;;;;;;;;;;19.50;99.90;;;;;;4414574;32;19953;-73
2022/08/10 05:57:04;;;;;;;;;;;19.50;99.90;;;;;;4415892;32;19997;-73
2022/08/10 05:59:32;;;;;;;;;;;19.50;99.90;;;;;;4400497;32;19949;-72
2022/08/10 06:01:58;;;;;;;;;;;19.40;99.90;;;;;;4401407;32;20008;-72
2022/08/10 06:04:28;;;;;;;;;;;19.50;99.90;;;;;;4399339;32;19946;-73
2022/08/10 06:06:54;;;;;;;;;;;19.60;99.90;;;;;;4399948;32;19956;-73
2022/08/10 06:09:19;;;;;;;;;;;19.70;99.90;;;;;;4400790;32;20008;-73
2022/08/10 06:11:47;;;;;;;;;;;19.80;99.90;;;;;;4399825;32;19954;-73
2022/08/10 06:15:14;;;;;;;;;;;19.80;99.90;;;;;;4400013;32;19941;-73
2022/08/10 06:17:01;;;;;;;;;;;19.90;99.90;;;;;;4388033;32;20003;-72
2022/08/10 06:19:26;;;;;;;;;;;20.00;99.90;;;;;;4400791;32;20357;-73
2022/08/10 06:21:54;;;;;;;;;;;20.00;99.90;;;;;;4399648;32;19961;-73
2022/08/10 06:24:22;;;;;;;;;;;20.10;99.90;;;;;;4400269;32;19949;-73
2022/08/10 06:26:47;;;;;;;;;;;20.10;99.90;;;;;;4400676;32;20382;-73
2022/08/10 06:29:13;;;;;;;;;;;20.20;99.90;;;;;;4399586;32;19946;-73
2022/08/10 06:31:42;;;;;;;;;;;20.20;99.90;;;;;;4399280;32;19961;-73
2022/08/10 06:34:08;;;;;;;;;;;20.30;99.90;;;;;;4398710;32;19950;-73
2022/08/10 06:36:36;;;;;;;;;;;20.30;99.90;;;;;;4398805;32;20089;-73
2022/08/10 06:39:02;;;;;;;;;;;20.30;99.90;;;;;;4399625;32;19950;-73
2022/08/10 06:41:28;;;;;;;;;;;20.30;99.90;;;;;;4398825;32;19953;-73
2022/08/10 06:43:57;;;;;;;;;;;20.40;99.90;;;;;;4400002;32;20336;-73
2022/08/10 06:46:23;;;;;;;;;;;20.50;99.90;;;;;;4399958;32;20020;-73
2022/08/10 06:48:50;;;;;;;;;;;20.60;99.90;;;;;;4399041;32;19953;-73
2022/08/10 06:51:19;;;;;;;;;;;20.60;99.90;;;;;;4400821;32;19982;-73
2022/08/10 06:53:47;;;;;;;;;;;20.60;99.90;;;;;;4399405;32;19956;-73
2022/08/10 06:56:14;;;;;;;;;;;20.60;99.90;;;;;;4401247;32;19949;-73
2022/08/10 06:58:44;;;;;;;;;;;20.70;99.90;;;;;;4399647;32;19950;-73
2022/08/10 07:01:13;;;;;;;;;;;20.80;99.90;;;;;;4399198;32;20016;-73
2022/08/10 07:03:42;;;;;;;;;;;20.90;99.90;;;;;;4400291;32;19969;-73
2022/08/10 07:06:11;;;;;;;;;;;20.90;99.90;;;;;;4399048;32;19982;-73
2022/08/10 07:08:37;;;;;;;;;;;20.90;99.90;;;;;;4399368;32;19949;-73
2022/08/10 07:11:04;;;;;;;;;;;20.90;99.90;;;;;;4398707;32;19949;-73
2022/08/10 07:13:30;;;;;;;;;;;20.90;99.90;;;;;;4399347;32;19942;-73
2022/08/10 07:15:57;;;;;;;;;;;21.00;99.90;;;;;;4398763;32;19953;-73
2022/08/10 07:18:23;;;;;;;;;;;21.00;99.90;;;;;;4399710;32;19941;-73
2022/08/10 07:20:48;;;;;;;;;;;21.20;99.90;;;;;;4399965;32;20013;-73
2022/08/10 07:23:15;;;;;;;;;;;21.20;99.90;;;;;;4399492;32;20241;-73
2022/08/10 07:25:44;;;;;;;;;;;21.20;99.90;;;;;;4399776;32;19949;-74
2022/08/10 07:28:10;;;;;;;;;;;21.30;99.90;;;;;;4398622;32;20303;-73
2022/08/10 07:30:37;;;;;;;;;;;21.50;99.90;;;;;;4399133;32;19960;-73
2022/08/10 07:33:03;;;;;;;;;;;21.50;99.90;;;;;;4399400;32;20003;-74
2022/08/10 07:35:30;;;;;;;;;;;21.50;99.90;;;;;;4398972;32;20354;-73
2022/08/10 07:37:56;;;;;;;;;;;21.60;99.90;;;;;;4399359;32;20342;-73
2022/08/10 07:40:22;;;;;;;;;;;21.70;99.90;;;;;;4399494;32;20318;-74
2022/08/10 07:42:49;;;;;;;;;;;21.80;99.90;;;;;;4398580;32;19942;-72
2022/08/10 07:45:15;;;;;;;;;;;22.00;99.90;;;;;;4399148;32;19949;-72
2022/08/10 07:47:43;;;;;;;;;;;22.10;99.90;;;;;;4398501;32;20361;-72
2022/08/10 07:50:11;;;;;;;;;;;22.30;99.90;;;;;;4400788;32;19987;-72
2022/08/10 07:52:36;;;;;;;;;;;22.40;99.70;;;;;;4402121;32;19950;-72
2022/08/10 07:55:03;;;;;;;;;;;22.50;99.20;;;;;;4409122;32;19953;-73
2022/08/10 07:57:29;;;;;;;;;;;22.60;98.50;;;;;;4416849;32;19953;-73
2022/08/10 07:59:56;;;;;;;;;;;22.70;98.20;;;;;;4401679;32;20072;-73
2022/08/10 08:02:28;;;;;;;;;;;23.00;97.80;;;;;;4386985;32;19961;-73
2022/08/10 08:04:55;;;;;;;;;;;23.10;96.40;;;;;;4398704;32;20361;-73
2022/08/10 08:07:20;;;;;;;;;;;23.10;96.40;;;;;;4401523;32;19961;-73
2022/08/10 08:09:48;;;;;;;;;;;23.30;96.50;;;;;;4400873;32;20003;-73
2022/08/10 08:12:13;;;;;;;;;;;23.40;96.40;;;;;;4401280;32;19953;-73
2022/08/10 08:14:41;;;;;;;;;;;23.50;96.00;;;;;;4402006;32;20390;-73
2022/08/10 08:17:07;;;;;;;;;;;23.60;95.30;;;;;;4401804;32;19949;-73
2022/08/10 08:19:33;;;;;;;;;;;23.60;94.80;;;;;;4401778;32;20353;-73
2022/08/10 08:21:59;;;;;;;;;;;23.70;94.00;;;;;;4401751;32;19959;-73
2022/08/10 08:24:25;;;;;;;;;;;23.80;93.90;;;;;;4401516;32;19946;-73
2022/08/10 08:26:51;;;;;;;;;;;23.80;94.00;;;;;;4401708;32;19949;-73
2022/08/10 08:29:17;;;;;;;;;;;23.80;93.80;;;;;;4395540;32;20013;-73
2022/08/10 08:31:43;;;;;;;;;;;23.80;93.70;;;;;;4398009;32;19957;-73
2022/08/10 08:34:11;;;;;;;;;;;24.00;93.40;;;;;;4401737;32;19956;-73
2022/08/10 08:36:38;;;;;;;;;;;23.90;92.70;;;;;;4400591;32;19946;-73
2022/08/10 08:39:04;;;;;;;;;;;23.80;92.80;;;;;;4400793;32;20521;-73
2022/08/10 08:41:31;;;;;;;;;;;24.00;93.30;;;;;;4400483;32;20056;-73
2022/08/10 08:44:17;;;;;;;;;;;24.10;93.10;;;;;;4402037;32;19942;-73
2022/08/10 08:47:02;;;;;;;;;;;24.00;93.10;;;;;;4389771;32;19953;-73
2022/08/10 08:49:41;;;;;;;;;;;24.20;92.40;;;;;;4390255;32;19995;-73
2022/08/10 08:52:26;;;;;;;;;;;24.30;91.50;;;;;;4401035;32;19991;-73
2022/08/10 08:54:58;;;;;;;;;;;24.40;91.20;;;;;;4395296;32;19961;-73
2022/08/10 08:57:43;;;;;;;;;;;24.40;91.10;;;;;;4416067;32;19998;-73
2022/08/10 09:00:28;;;;;;;;;;;24.40;91.30;;;;;;4393043;32;19953;-73
2022/08/10 09:03:14;;;;;;;;;;;24.50;91.20;;;;;;4389578;32;19950;-73
2022/08/10 09:05:49;;;;;;;;;;;24.60;90.40;;;;;;4389624;32;19960;-73
2022/08/10 09:08:24;;;;;;;;;;;24.70;88.40;;;;;;4399815;32;19949;-73
2022/08/10 09:11:09;;;;;;;;;;;24.80;87.60;;;;;;4400952;32;19950;-73
2022/08/10 09:13:40;;;;;;;;;;;25.00;87.30;;;;;;4389632;32;20349;-73
2022/08/10 09:16:18;;;;;;;;;;;25.10;86.10;;;;;;4400092;32;19963;-73
2022/08/10 09:18:48;;;;;;;;;;;25.20;84.80;;;;;;4400879;32;19945;-73
2022/08/10 09:21:18;;;;;;;;;;;25.40;84.10;;;;;;4400739;32;19973;-73
2022/08/10 09:23:51;;;;;;;;;;;25.40;81.10;;;;;;4399604;32;20366;-73
2022/08/10 09:26:19;;;;;;;;;;;25.60;81.40;;;;;;4400966;32;19949;-73
2022/08/10 09:28:44;;;;;;;;;;;25.70;82.70;;;;;;4399818;32;19942;-73
2022/08/10 09:31:10;;;;;;;;;;;25.60;81.90;;;;;;4399968;32;19973;-74
2022/08/10 09:33:55;;;;;;;;;;;25.80;82.50;;;;;;4399736;32;19953;-73
2022/08/10 09:36:27;;;;;;;;;;;25.70;82.90;;;;;;4398365;32;20022;-73
2022/08/10 09:39:13;;;;;;;;;;;26.00;82.50;;;;;;4384609;32;19960;-73
2022/08/10 09:41:45;;;;;;;;;;;26.00;80.90;;;;;;4374327;32;19960;-73
2022/08/10 09:44:19;;;;;;;;;;;26.10;80.70;;;;;;4385096;32;19945;-73
2022/08/10 09:46:49;;;;;;;;;;;26.10;78.20;;;;;;4394805;32;19957;-73
2022/08/10 09:49:34;;;;;;;;;;;26.10;78.20;;;;;;4400436;32;19954;-73
2022/08/10 09:52:20;;;;;;;;;;;26.20;78.40;;;;;;4391645;32;20287;-73
2022/08/10 09:55:05;;;;;;;;;;;26.20;76.70;;;;;;4396364;32;19956;-73
2022/08/10 09:57:50;;;;;;;;;;;26.50;75.00;;;;;;4403908;32;19956;-73
2022/08/10 10:00:18;;;;;;;;;;;26.80;75.40;;;;;;4382699;32;19954;-73
2022/08/10 10:02:51;;;;;;;;;;;26.90;72.20;;;;;;4385353;32;19954;-73
2022/08/10 10:05:18;;;;;;;;;;;26.90;71.30;;;;;;4384440;32;19949;-73
2022/08/10 10:07:49;;;;;;;;;;;27.00;68.10;;;;;;4397861;32;19945;-73
2022/08/10 10:10:16;;;;;;;;;;;27.20;69.10;;;;;;4400309;32;19945;-73
2022/08/10 10:12:47;;;;;;;;;;;27.20;69.40;;;;;;4399267;32;19945;-73
2022/08/10 10:15:27;;;;;;;;;;;27.20;69.00;;;;;;4400132;32;19946;-73
2022/08/10 10:18:01;;;;;;;;;;;27.30;69.00;;;;;;4399708;32;19999;-73
2022/08/10 10:20:27;;;;;;;;;;;27.50;69.40;;;;;;4400000;32;20389;-73
2022/08/10 10:23:06;;;;;;;;;;;27.50;67.60;;;;;;4399324;32;19945;-73
2022/08/10 10:25:37;;;;;;;;;;;27.60;68.50;;;;;;4400268;32;19965;-73
2022/08/10 10:28:09;;;;;;;;;;;28.00;68.00;;;;;;4399966;32;20342;-73
2022/08/10 10:30:37;;;;;;;;;;;28.20;66.50;;;;;;4398401;32;19962;-73
2022/08/10 10:33:11;;;;;;;;;;;28.60;67.20;;;;;;4383994;32;19953;-73
2022/08/10 10:35:39;;;;;;;;;;;29.00;65.10;;;;;;4385949;32;19974;-73
2022/08/10 10:38:06;;;;;;;;;;;28.70;64.40;;;;;;4399200;32;20472;-74
2022/08/10 10:40:36;;;;;;;;;;;28.80;63.50;;;;;;4399775;32;19953;-73
2022/08/10 10:43:21;;;;;;;;;;;28.90;61.60;;;;;;4399680;32;19979;-73
2022/08/10 10:45:55;;;;;;;;;;;28.80;61.10;;;;;;4388864;32;20354;-74
2022/08/10 10:48:38;;;;;;;;;;;28.90;61.80;;;;;;4398306;32;19945;-73
2022/08/10 10:51:11;;;;;;;;;;;29.30;60.80;;;;;;4399097;32;19954;-73
2022/08/10 10:53:56;;;;;;;;;;;29.20;60.40;;;;;;4398674;32;20002;-74
2022/08/10 10:56:28;;;;;;;;;;;29.50;60.20;;;;;;4388395;32;19945;-73
2022/08/10 10:59:00;;;;;;;;;;;29.70;60.30;;;;;;4398384;32;19962;-74
2022/08/10 11:01:45;;;;;;;;;;;29.60;60.30;;;;;;4391270;32;19999;-74
2022/08/10 11:04:31;;;;;;;;;;;29.40;59.50;;;;;;4393954;32;19952;-73
2022/08/10 11:07:13;;;;;;;;;;;29.50;59.80;;;;;;4390471;32;19995;-74
2022/08/10 11:09:43;;;;;;;;;;;29.30;58.50;;;;;;4398611;32;19942;-73
2022/08/10 11:12:15;;;;;;;;;;;29.60;59.40;;;;;;4399775;32;20389;-73
2022/08/10 11:14:47;;;;;;;;;;;29.50;58.90;;;;;;4399710;32;20379;-73
2022/08/10 11:17:17;;;;;;;;;;;29.70;58.60;;;;;;4398169;32;19945;-73
2022/08/10 11:19:51;;;;;;;;;;;29.90;58.30;;;;;;4398473;32;19986;-73
2022/08/10 11:22:18;;;;;;;;;;;30.20;57.20;;;;;;4398820;32;19945;-73
2022/08/10 11:24:54;;;;;;;;;;;30.30;57.70;;;;;;4400626;32;19956;-73
2022/08/10 11:27:39;;;;;;;;;;;30.70;59.00;;;;;;4402074;32;19995;-73
2022/08/10 11:30:06;;;;;;;;;;;30.70;58.30;;;;;;4390814;32;20338;-73
2022/08/10 11:32:35;;;;;;;;;;;31.00;57.60;;;;;;4400911;32;19961;-73
2022/08/10 11:35:06;;;;;;;;;;;31.40;56.50;;;;;;4402720;32;20004;-74
2022/08/10 11:37:52;;;;;;;;;;;31.70;55.60;;;;;;4402010;32;20009;-73
2022/08/10 11:40:37;;;;;;;;;;;31.20;55.60;;;;;;4405589;32;20322;-73
2022/08/10 11:43:08;;;;;;;;;;;31.20;56.20;;;;;;4401339;32;19946;-73
2022/08/10 11:45:35;;;;;;;;;;;31.40;55.70;;;;;;4401336;32;20013;-73
2022/08/10 11:48:07;;;;;;;;;;;31.30;55.50;;;;;;4401593;32;19946;-73
2022/08/10 11:50:37;;;;;;;;;;;31.30;55.90;;;;;;4401813;32;19978;-74
2022/08/10 11:53:12;;;;;;;;;;;31.70;55.40;;;;;;4414496;32;20357;-74
2022/08/10 11:55:38;;;;;;;;;;;32.00;55.20;;;;;;4416970;32;19949;-73
2022/08/10 11:59:55;;;;;;;;;;;32.30;55.00;;;;;;4415667;32;20449;-73
2022/08/10 12:00:54;;;;;;;;;;;32.90;55.10;;;;;;4414839;32;19949;-73
2022/08/10 12:03:20;;;;;;;;;;;33.00;53.80;;;;;;4398467;32;19954;-73
2022/08/10 12:05:47;;;;;;;;;;;33.10;53.10;;;;;;4386808;32;19954;-73
2022/08/10 12:08:15;;;;;;;;;;;33.30;53.40;;;;;;4400847;32;19950;-73
2022/08/10 12:10:41;;;;;;;;;;;33.40;53.10;;;;;;4401019;32;19995;-73
2022/08/10 12:13:08;;;;;;;;;;;33.20;52.50;;;;;;4402069;32;19953;-73
2022/08/10 12:15:37;;;;;;;;;;;33.00;52.70;;;;;;4400325;32;19949;-73
2022/08/10 12:18:06;;;;;;;;;;;33.20;52.60;;;;;;4401308;32;19959;-73
2022/08/10 12:20:33;;;;;;;;;;;33.30;51.80;;;;;;4400855;32;19957;-73
2022/08/10 12:23:18;;;;;;;;;;;33.30;51.70;;;;;;4401703;32;19946;-73
2022/08/10 12:25:51;;;;;;;;;;;33.90;51.40;;;;;;4389350;32;19951;-74
2022/08/10 12:28:19;;;;;;;;;;;34.40;50.90;;;;;;4400384;32;19962;-74
2022/08/10 12:30:48;;;;;;;;;;;34.40;50.50;;;;;;4401054;32;20010;-74
2022/08/10 12:33:18;;;;;;;;;;;33.90;50.90;;;;;;4400179;32;19976;-74
2022/08/10 12:35:49;;;;;;;;;;;34.30;50.40;;;;;;4400093;32;19938;-74
2022/08/10 12:38:20;;;;;;;;;;;34.20;50.50;;;;;;4399832;32;19960;-74
2022/08/10 12:40:48;;;;;;;;;;;34.80;50.10;;;;;;4400657;32;20311;-74
2022/08/10 12:43:15;;;;;;;;;;;35.50;48.80;;;;;;4400413;32;20370;-74
2022/08/10 12:46:00;;;;;;;;;;;35.80;48.80;;;;;;4401224;32;20302;-74
2022/08/10 12:48:33;;;;;;;;;;;35.50;49.10;;;;;;4389669;32;19957;-74
2022/08/10 12:51:00;;;;;;;;;;;35.60;48.40;;;;;;4401820;32;20174;-74
2022/08/10 12:53:46;;;;;;;;;;;35.20;48.70;;;;;;4400136;32;20278;-74
2022/08/10 12:56:18;;;;;;;;;;;35.50;48.10;;;;;;4389506;32;20109;-74
2022/08/10 12:58:44;;;;;;;;;;;35.50;48.10;;;;;;4400331;32;19949;-74
2022/08/10 13:01:10;;;;;;;;;;;35.70;48.40;;;;;;4400909;32;19946;-74
2022/08/10 13:03:36;;;;;;;;;;;36.00;47.50;;;;;;4398270;32;20407;-74
2022/08/10 13:06:03;;;;;;;;;;;36.20;47.80;;;;;;4400572;32;19959;-74
2022/08/10 13:09:30;;;;;;;;;;;36.80;46.60;;;;;;4399950;32;19960;-74
2022/08/10 13:11:17;;;;;;;;;;;36.70;46.80;;;;;;4388408;32;19953;-74
2022/08/10 13:13:44;;;;;;;;;;;36.40;46.10;;;;;;4400036;32;19999;-74
2022/08/10 13:16:10;;;;;;;;;;;35.60;47.40;;;;;;4400863;32;19957;-74
2022/08/10 13:18:39;;;;;;;;;;;35.40;48.00;;;;;;4399593;32;19949;-74
2022/08/10 13:21:06;;;;;;;;;;;35.50;48.00;;;;;;4399826;32;19945;-74
2022/08/10 13:23:33;;;;;;;;;;;35.60;47.70;;;;;;4401054;32;19971;-74
2022/08/10 13:25:59;;;;;;;;;;;36.20;46.80;;;;;;4400145;32;20413;-74
2022/08/10 13:28:32;;;;;;;;;;;36.00;47.10;;;;;;4400096;32;19973;-74
2022/08/10 13:31:01;;;;;;;;;;;36.00;46.60;;;;;;4399607;32;19949;-74
2022/08/10 13:33:27;;;;;;;;;;;36.20;46.00;;;;;;4400084;32;19975;-74
2022/08/10 13:35:56;;;;;;;;;;;35.80;46.30;;;;;;4400467;32;19985;-74
2022/08/10 13:38:23;;;;;;;;;;;35.20;47.00;;;;;;4400463;32;19996;-74
2022/08/10 13:40:49;;;;;;;;;;;35.10;47.20;;;;;;4389011;32;19950;-74
2022/08/10 13:43:15;;;;;;;;;;;35.20;47.00;;;;;;4385064;32;19953;-74
2022/08/10 13:45:41;;;;;;;;;;;35.40;46.40;;;;;;4388453;32;19960;-74
2022/08/10 13:48:09;;;;;;;;;;;35.60;45.40;;;;;;4400530;32;19963;-74
2022/08/10 13:50:35;;;;;;;;;;;35.60;45.00;;;;;;4400648;32;20264;-74
2022/08/10 13:53:02;;;;;;;;;;;35.90;45.20;;;;;;4400477;32;19955;-73
2022/08/10 13:55:29;;;;;;;;;;;36.00;45.10;;;;;;4399225;32;19992;-74
2022/08/10 13:57:56;;;;;;;;;;;35.90;45.00;;;;;;4400113;32;19956;-74
2022/08/10 14:00:29;;;;;;;;;;;35.60;45.00;;;;;;4399051;32;20029;-73
2022/08/10 14:03:15;;;;;;;;;;;35.40;45.60;;;;;;4392965;32;20008;-73
2022/08/10 14:05:42;;;;;;;;;;;34.90;44.60;;;;;;4383193;32;19957;-73
2022/08/10 14:08:11;;;;;;;;;;;34.20;46.20;;;;;;4385640;32;19974;-73
2022/08/10 14:10:38;;;;;;;;;;;33.60;47.60;;;;;;4396563;32;20357;-73
2022/08/10 14:13:04;;;;;;;;;;;33.40;47.20;;;;;;4400193;32;19945;-73
2022/08/10 14:15:32;;;;;;;;;;;33.40;47.60;;;;;;4399107;32;19961;-73
2022/08/10 14:17:58;;;;;;;;;;;33.10;48.20;;;;;;4400878;32;19949;-73
2022/08/10 14:20:27;;;;;;;;;;;33.30;47.80;;;;;;4399915;32;19949;-73
2022/08/10 14:22:59;;;;;;;;;;;33.70;47.60;;;;;;4399374;32;19950;-73
2022/08/10 14:25:24;;;;;;;;;;;34.50;47.20;;;;;;4399528;32;19956;-74
2022/08/10 14:27:50;;;;;;;;;;;35.10;47.00;;;;;;4399588;32;19949;-74